Nearby METAR Reports

 

KBVO - Bartlesville, Oklahoma, USA
Distance from station: WNW 10mi, 16km
Updated: Mon, 28-Nov-2022 5:53pm CST
Clear
Clear
 Wind from SSE
Wind: SSE 6 mph , 9 km/h
Temperature: 52°F , 11°C
Dew Point: 41°F , 5°C
Humidity: 67%
Barometer: 29.71 inHg , 1006.1 hPa
Clouds: Clear
Visibility: 10 miles , 16 km
2022/11/28 23:53 KBVO 282353Z AUTO 15005KT 10SM CLR 11/05 A2971 RMK AO2 SLP062 T01060050 10150 20106 55008
KCFV - Coffeyville, Kansas, USA
Distance from station: NNE 31mi, 49km
Updated: Mon, 28-Nov-2022 5:52pm CST
Clear
Clear
 Wind from SSE
Wind: SSE 10 mph , 17 km/h
Temperature: 52°F , 11°C
Dew Point: 39°F , 4°C
Humidity: 62%
Barometer: 29.71 inHg , 1006.1 hPa
Clouds: Clear
Visibility: 10 miles , 16 km
2022/11/28 23:52 KCFV 282352Z AUTO 15009KT 10SM CLR 11/04 A2971 RMK AO2 SLP066 T01110044 10150 20111 55008
 
KIDP - Independence, Kansas, USA
Distance from station: N 32mi, 52km
Updated: Mon, 28-Nov-2022 5:35pm CST
Clear
Clear
 Wind from SSE
Wind: SSE 14 mph , 22 km/h
Temperature: 52°F , 11°C
Dew Point: 41°F , 5°C
Humidity: 67%
Barometer: 29.71 inHg , 1006.1 hPa
Clouds: Clear
Visibility: 10 miles , 16 km
2022/11/28 23:35 KIDP 282335Z AUTO 16012KT 10SM CLR 11/05 A2971 RMK AO2 T01150046
KGCM - Claremore, Oklahoma, USA
Distance from station: SE 35mi, 56km
Updated: Mon, 28-Nov-2022 5:55pm CST
Clear
Clear
 Wind from S
Wind: S 10 mph , 17 km/h
Temperature: 55°F , 13°C
Dew Point: 41°F , 5°C
Humidity: 59%
Barometer: 29.72 inHg , 1006.4 hPa
Clouds: Clear
Visibility: 10 miles , 16 km
2022/11/28 23:55 KGCM 282355Z AUTO 17009KT 10SM CLR 13/05 A2972 RMK AO2
 
KTUL - Tulsa, Oklahoma, USA
Distance from station: S 35mi, 56km
Updated: Mon, 28-Nov-2022 5:53pm CST
Mostly cloudy
Mostly cloudy
 Wind from S
Wind: S 14 mph , 22 km/h
Temperature: 57°F , 14°C
Dew Point: 43°F , 6°C
Humidity: 59%
Barometer: 29.72 inHg , 1006.4 hPa
Clouds: Mostly cloudy
Visibility: 10 miles , 16 km
Cloud details: Mostly cloudy 25000 ft
2022/11/28 23:53 KTUL 282353Z 17012KT 10SM BKN250 14/06 A2972 RMK AO2 SLP063 T01440061 10161 20128 55006
KRVS - Tulsa, Oklahoma, USA
Distance from station: S 46mi, 74km
Updated: Mon, 28-Nov-2022 5:53pm CST
Clear
Clear
 Wind from S
Wind: S 10 mph , 17 km/h, Gust: 24 mph , 39 km/h
Temperature: 59°F , 15°C
Dew Point: 39°F , 4°C
Humidity: 48%
Barometer: 29.72 inHg , 1006.4 hPa
Clouds: Clear
Visibility: 10 miles , 16 km
2022/11/28 23:53 KRVS 282353Z 18009G21KT 10SM CLR 15/04 A2972 RMK AO2 SLP070 T01500044 10161 20128 55004
 
KPPF - Parsons, Kansas, USA
Distance from station: NNE 48mi, 76km
Updated: Mon, 28-Nov-2022 5:52pm CST
Clear
Clear
 Wind from SSE
Wind: SSE 5 mph , 7 km/h
Temperature: 52°F , 11°C
Dew Point: 37°F , 3°C
Humidity: 58%
Barometer: 29.72 inHg , 1006.4 hPa
Clouds: Clear
Visibility: 10 miles , 16 km
2022/11/28 23:52 KPPF 282352Z AUTO 16004KT 10SM CLR 11/03 A2972 RMK AO2 SLP069 T01060033 10150 20106 56007
KGMJ - Grove, Oklahoma, USA
Distance from station: E 63mi, 101km
Updated: Mon, 28-Nov-2022 5:55pm CST
Clear
Clear
 Wind from SE
Wind: SE 6 mph , 9 km/h
Temperature: 54°F , 12°C
Dew Point: 39°F , 4°C
Humidity: 58%
Barometer: 29.74 inHg , 1007.1 hPa
Clouds: Clear
Visibility: 10 miles , 16 km
2022/11/28 23:55 KGMJ 282355Z AUTO 14005KT 10SM CLR 12/04 A2974 RMK AO2
 
KPNC - Ponca City, Oklahoma, USA
Distance from station: W 69mi, 111km
Updated: Mon, 28-Nov-2022 5:53pm CST
Clear
Clear
 Wind from SSE
Wind: SSE 10 mph , 17 km/h
Temperature: 55°F , 13°C
Dew Point: 43°F , 6°C
Humidity: 63%
Barometer: 29.65 inHg , 1004.1 hPa
Clouds: Clear
Visibility: 10 miles , 16 km
2022/11/28 23:53 KPNC 282353Z AUTO 15009KT 10SM CLR 13/06 A2965 RMK AO2 SLP039 T01330056 10167 20128 55008
KCNU - Chanute, Kansas, USA
Distance from station: NNE 69mi, 112km
Updated: Mon, 28-Nov-2022 5:52pm CST
Clear
Clear
 Wind from SSE
Wind: SSE 8 mph , 13 km/h
Temperature: 52°F , 11°C
Dew Point: 39°F , 4°C
Humidity: 62%
Barometer: 29.71 inHg , 1006.1 hPa
Clouds: Clear
Visibility: 10 miles , 16 km
2022/11/28 23:52 KCNU 282352Z AUTO 16007KT 10SM CLR 11/04 A2971 RMK AO2 SLP064 T01060039 10150 20106 56008